Time;durP1;ratioP1;P1;durP2;ratioP2;P2;SDS_P1;SDS_P2;PMS_P1;PMS_P2;Temp;Humidity;BMP_temperature;BMP_pressure;BME280_temperature;BME280_humidity;BME280_pressure;Samples;Min_cycle;Max_cycle;Signal;HPM_P1;HPM_P2
2022/10/25 00:06:04;;;;;;;0.73;0.70;;;;;;;16.86;70.71;100547.72;18304543;32;20094;-57
2022/10/25 00:16:14;;;;;;;1.95;1.50;;;;;;;16.89;70.69;100546.78;18305441;32;20448;-58
2022/10/25 00:26:18;;;;;;;0.62;0.62;;;;;;;16.82;71.08;100553.09;18304828;32;20069;-57
2022/10/25 00:36:25;;;;;;;0.65;0.65;;;;;;;16.88;70.76;100579.28;18290292;32;20103;-58
2022/10/25 00:46:30;;;;;;;0.75;0.50;;;;;;;16.91;70.67;100573.94;18304253;32;20143;-57
2022/10/25 00:56:38;;;;;;;0.47;0.47;;;;;;;16.96;70.70;100601.06;18303981;32;20460;-58
2022/10/25 01:06:43;;;;;;;2.58;1.40;;;;;;;16.87;71.27;100591.62;18303522;32;20089;-57
2022/10/25 01:16:55;;;;;;;0.50;0.50;;;;;;;16.83;71.72;100594.38;18304073;32;20097;-58
2022/10/25 01:27:20;;;;;;;1.95;1.25;;;;;;;16.82;71.87;100597.91;18303667;32;20131;-57
2022/10/25 01:37:30;;;;;;;1.27;0.70;;;;;;;16.95;71.67;100595.84;18301573;32;20093;-58
2022/10/25 01:47:38;;;;;;;0.82;0.70;;;;;;;16.63;72.57;100578.12;18302376;32;20101;-58
2022/10/25 01:57:56;;;;;;;3.30;1.48;;;;;;;16.88;72.40;100595.09;18300681;32;20173;-57
2022/10/25 02:08:03;;;;;;;0.68;0.50;;;;;;;16.71;73.48;100587.62;18299780;32;20327;-58
2022/10/25 02:18:12;;;;;;;1.23;0.60;;;;;;;17.01;71.95;100591.28;18300405;32;20089;-58
2022/10/25 02:28:17;;;;;;;1.55;1.42;;;;;;;16.54;73.39;100567.81;18300469;32;20093;-58
2022/10/25 02:38:21;;;;;;;1.92;0.65;;;;;;;16.70;72.19;100557.78;18308864;32;20098;-57
2022/10/25 02:48:25;;;;;;;0.55;0.55;;;;;;;16.67;71.46;100549.09;18302372;32;20189;-58
2022/10/25 02:58:32;;;;;;;0.50;0.50;;;;;;;16.49;70.69;100549.50;18254066;32;20182;-57
2022/10/25 03:08:35;;;;;;;1.15;0.80;;;;;;;16.31;70.33;100577.16;18238485;32;20089;-58
2022/10/25 03:18:40;;;;;;;1.55;1.30;;;;;;;16.03;70.33;100584.78;18268538;32;20116;-57
2022/10/25 03:28:43;;;;;;;2.03;1.90;;;;;;;15.86;69.72;100593.03;18251050;32;20145;-57
2022/10/25 03:38:48;;;;;;;0.82;0.82;;;;;;;15.34;71.96;100587.94;18238316;32;150630;-57
2022/10/25 03:48:51;;;;;;;2.22;2.08;;;;;;;15.53;71.15;100556.84;18242566;32;20090;-57
2022/10/25 03:58:55;;;;;;;0.40;0.40;;;;;;;15.72;70.39;100573.16;18242821;32;20166;-57
2022/10/25 04:08:58;;;;;;;0.30;0.30;;;;;;;15.78;71.93;100580.03;18242564;32;20098;-57
2022/10/25 04:19:03;;;;;;;0.50;0.50;;;;;;;15.25;74.84;100596.84;18243023;32;20112;-57
2022/10/25 04:29:06;;;;;;;0.30;0.30;;;;;;;15.28;75.32;100578.41;18241659;32;20102;-57
2022/10/25 04:39:11;;;;;;;0.90;0.90;;;;;;;15.70;73.42;100581.97;18241270;32;20386;-57
2022/10/25 04:49:15;;;;;;;0.50;0.50;;;;;;;15.75;72.39;100575.69;18242056;32;20113;-57
2022/10/25 04:59:19;;;;;;;0.60;0.60;;;;;;;15.70;71.66;100580.22;18283111;32;20141;-58
2022/10/25 05:09:22;;;;;;;0.40;0.40;;;;;;;15.66;71.93;100574.16;18332886;32;20109;-57
2022/10/25 05:19:27;;;;;;;0.75;0.75;;;;;;;15.78;71.87;100567.72;18366504;32;20113;-57
2022/10/25 05:29:30;;;;;;;0.70;0.70;;;;;;;15.26;73.95;100593.31;18365545;32;20101;-58
2022/10/25 05:39:40;;;;;;;0.30;0.30;;;;;;;15.00;75.83;100588.53;18365490;32;20108;-58
2022/10/25 05:49:44;;;;;;;0.85;0.60;;;;;;;15.58;72.93;100602.38;18314269;32;20188;-58
2022/10/25 05:59:48;;;;;;;0.70;0.47;;;;;;;15.75;74.54;100622.22;18299826;32;20151;-57
2022/10/25 06:09:51;;;;;;;0.50;0.50;;;;;;;16.02;74.43;100655.03;18302347;32;20093;-57
2022/10/25 06:19:56;;;;;;;0.50;0.50;;;;;;;15.77;75.71;100662.53;18265315;32;20168;-58
2022/10/25 06:29:59;;;;;;;0.62;0.43;;;;;;;16.60;72.74;100677.53;18263542;32;20160;-57
2022/10/25 06:40:04;;;;;;;0.30;0.30;;;;;;;16.39;73.92;100702.56;18279310;32;20093;-58
2022/10/25 06:50:08;;;;;;;0.40;0.40;;;;;;;16.14;75.21;100708.34;18254350;32;20078;-57
2022/10/25 07:00:14;;;;;;;0.20;0.20;;;;;;;16.80;73.02;100721.84;18241098;32;20141;-58
2022/10/25 07:10:17;;;;;;;0.30;0.30;;;;;;;17.15;71.85;100703.47;18256163;32;20105;-57
2022/10/25 07:20:22;;;;;;;0.28;0.28;;;;;;;17.49;69.67;100705.25;18305698;32;20132;-57
2022/10/25 07:30:25;;;;;;;0.30;0.30;;;;;;;17.51;69.55;100723.72;18305869;32;20116;-57
2022/10/25 07:40:30;;;;;;;0.20;0.20;;;;;;;17.47;70.17;100731.69;18305826;32;20106;-57
2022/10/25 07:50:33;;;;;;;0.40;0.40;;;;;;;17.74;70.01;100728.37;18306086;32;20093;-57
2022/10/25 08:00:38;;;;;;;0.30;0.20;;;;;;;18.02;69.71;100751.38;18305583;32;20094;-57
2022/10/25 08:10:42;;;;;;;0.20;0.20;;;;;;;18.32;67.05;100745.28;18283782;32;20086;-57
2022/10/25 08:20:46;;;;;;;0.20;0.20;;;;;;;18.49;64.66;100742.16;18306108;32;20480;-57
2022/10/25 08:31:07;;;;;;;0.20;0.20;;;;;;;17.96;66.39;100746.28;18298781;32;20073;-58
2022/10/25 08:41:16;;;;;;;0.20;0.20;;;;;;;18.35;66.19;100751.38;18304611;32;20133;-58
2022/10/25 08:51:25;;;;;;;0.20;0.20;;;;;;;18.42;66.77;100754.69;18287938;32;20085;-57
2022/10/25 09:01:36;;;;;;;0.20;0.20;;;;;;;18.30;66.33;100755.91;18303267;32;20414;-58
2022/10/25 09:11:48;;;;;;;0.73;0.30;;;;;;;18.47;64.62;100767.78;18304011;32;20104;-57
2022/10/25 09:21:57;;;;;;;0.28;0.20;;;;;;;18.73;63.41;100780.19;18302470;32;20112;-58
2022/10/25 09:32:02;;;;;;;0.25;0.25;;;;;;;18.40;65.03;100793.53;18300362;32;20430;-58
2022/10/25 09:42:14;;;;;;;0.10;0.10;;;;;;;18.56;63.90;100788.66;18306275;32;20093;-57
2022/10/25 09:52:21;;;;;;;0.20;0.20;;;;;;;19.01;61.69;100787.31;18310040;32;20105;-57
2022/10/25 10:02:27;;;;;;;1.15;0.30;;;;;;;19.22;61.88;100777.00;18306755;32;20117;-57
2022/10/25 10:12:33;;;;;;;0.10;0.10;;;;;;;19.39;59.60;100785.22;18308121;32;20116;-58
2022/10/25 10:22:44;;;;;;;0.10;0.10;;;;;;;19.60;57.76;100790.75;18308105;32;20192;-58
2022/10/25 10:32:48;;;;;;;0.45;0.20;;;;;;;19.59;57.57;100790.78;18307071;32;20401;-58
2022/10/25 10:42:56;;;;;;;0.20;0.20;;;;;;;19.57;58.67;100787.31;18308410;32;20089;-58
2022/10/25 10:53:03;;;;;;;0.10;0.10;;;;;;;19.73;57.56;100787.66;18308153;32;20112;-58
2022/10/25 11:03:37;;;;;;;0.10;0.10;;;;;;;20.27;54.75;100783.13;18304650;32;20139;-58
2022/10/25 11:13:55;;;;;;;0.10;0.10;;;;;;;20.87;53.14;100774.72;18257732;32;20093;-58
2022/10/25 11:24:08;;;;;;;0.10;0.10;;;;;;;21.08;51.93;100764.19;18290757;32;20491;-58
2022/10/25 11:34:19;;;;;;;0.20;0.17;;;;;;;21.10;51.54;100777.34;18289451;32;20104;-58
2022/10/25 11:44:44;;;;;;;0.10;0.10;;;;;;;21.67;50.29;100790.97;18302519;32;20454;-58
2022/10/25 11:54:53;;;;;;;0.10;0.10;;;;;;;20.56;52.07;100783.81;18296185;32;20185;-58
2022/10/25 12:05:09;;;;;;;0.08;0.08;;;;;;;20.88;51.02;100775.56;18300959;32;20089;-58
2022/10/25 12:15:17;;;;;;;0.10;0.10;;;;;;;21.22;50.65;100782.19;18287558;32;20147;-58
2022/10/25 12:25:24;;;;;;;0.40;0.10;;;;;;;21.40;49.64;100790.34;18303173;32;20100;-58
2022/10/25 12:35:30;;;;;;;0.10;0.10;;;;;;;21.61;50.74;100789.41;18301557;32;20374;-58
2022/10/25 12:46:07;;;;;;;0.00;0.00;;;;;;;21.07;50.73;100796.94;18301681;32;20199;-58
2022/10/25 12:56:22;;;;;;;0.10;0.10;;;;;;;20.78;51.38;100783.84;17978928;32;20126;-58
2022/10/25 13:06:31;;;;;;;0.00;0.00;;;;;;;21.32;51.21;100775.56;17977691;33;20397;-58
2022/10/25 13:16:35;;;;;;;0.10;0.10;;;;;;;21.58;50.12;100775.41;17977958;33;20146;-58
2022/10/25 13:27:14;;;;;;;0.10;0.10;;;;;;;21.53;49.22;100764.97;18029574;32;20089;-58
2022/10/25 13:37:42;;;;;;;0.20;0.20;;;;;;;21.46;48.53;100777.66;18037377;32;20169;-58
2022/10/25 13:47:46;;;;;;;0.20;0.20;;;;;;;21.48;49.47;100780.22;18035611;32;20504;-58
2022/10/25 13:57:53;;;;;;;0.30;0.30;;;;;;;21.62;48.20;100791.16;18036576;32;20372;-58
2022/10/25 14:08:11;;;;;;;0.10;0.10;;;;;;;21.62;48.61;100790.25;18113545;32;20440;-58
2022/10/25 14:18:18;;;;;;;0.40;0.40;;;;;;;21.74;48.63;100795.12;18294983;32;20102;-58
2022/10/25 14:28:23;;;;;;;0.17;0.17;;;;;;;21.87;48.04;100810.50;18299718;32;20090;-58
2022/10/25 14:38:28;;;;;;;0.10;0.10;;;;;;;21.66;48.89;100812.25;18307076;32;20192;-58
2022/10/25 14:48:31;;;;;;;0.10;0.10;;;;;;;21.58;48.95;100812.59;18304528;32;20442;-58
2022/10/25 14:58:40;;;;;;;0.10;0.10;;;;;;;21.31;48.57;100812.78;18282781;32;20149;-58
2022/10/25 15:08:45;;;;;;;0.10;0.10;;;;;;;21.24;49.34;100817.50;18295597;32;20106;-58
2022/10/25 15:19:05;;;;;;;0.10;0.10;;;;;;;21.01;50.43;100826.38;18303948;32;20090;-58
2022/10/25 15:29:08;;;;;;;0.00;0.00;;;;;;;20.76;50.51;100838.78;18272919;32;20082;-58
2022/10/25 15:39:23;;;;;;;0.00;0.00;;;;;;;20.58;51.50;100837.69;18276874;32;20090;-58
2022/10/25 15:49:26;;;;;;;0.08;0.08;;;;;;;20.10;52.75;100840.25;18127515;32;20137;-58
2022/10/25 15:59:30;;;;;;;0.10;0.10;;;;;;;19.72;53.90;100834.44;18103844;32;20134;-58
2022/10/25 16:09:34;;;;;;;0.20;0.20;;;;;;;19.14;55.56;100838.06;18199752;32;20147;-58
2022/10/25 16:19:38;;;;;;;0.20;0.20;;;;;;;18.87;56.13;100843.25;18301825;32;20101;-58
2022/10/25 16:29:41;;;;;;;0.20;0.20;;;;;;;18.17;58.12;100838.16;18302365;32;20108;-57
2022/10/25 16:39:46;;;;;;;0.93;0.60;;;;;;;18.01;58.72;100863.22;18300821;32;20113;-58
2022/10/25 16:49:49;;;;;;;0.17;0.17;;;;;;;17.70;59.34;100867.53;18286522;32;20438;-58
2022/10/25 16:59:55;;;;;;;0.20;0.20;;;;;;;17.28;60.44;100872.88;18300884;32;20389;-58
2022/10/25 17:09:58;;;;;;;0.20;0.20;;;;;;;16.86;61.14;100879.03;18298991;32;20123;-58
2022/10/25 17:20:03;;;;;;;0.30;0.30;;;;;;;16.59;61.76;100886.59;18299306;32;20101;-57
2022/10/25 17:30:08;;;;;;;0.32;0.30;;;;;;;16.35;62.52;100904.63;18305857;32;20135;-57
2022/10/25 17:40:13;;;;;;;0.62;0.55;;;;;;;15.62;64.82;100909.28;18317039;32;20120;-58
2022/10/25 17:50:21;;;;;;;0.30;0.30;;;;;;;15.59;65.14;100914.59;18354212;32;20193;-58
2022/10/25 18:00:25;;;;;;;0.28;0.28;;;;;;;15.84;63.78;100918.63;18349584;32;20109;-57
2022/10/25 18:10:29;;;;;;;0.20;0.20;;;;;;;15.45;64.30;100917.44;18323248;32;20381;-58
2022/10/25 18:20:33;;;;;;;0.30;0.30;;;;;;;15.07;64.96;100916.19;18301269;32;20484;-58
2022/10/25 18:30:37;;;;;;;0.40;0.40;;;;;;;14.81;65.04;100905.09;18345339;32;20136;-57
2022/10/25 18:40:42;;;;;;;0.30;0.30;;;;;;;14.53;66.16;100891.37;18354385;32;20428;-57
2022/10/25 18:50:45;;;;;;;0.52;0.52;;;;;;;14.38;65.89;100895.03;18353930;32;20125;-57
2022/10/25 19:00:50;;;;;;;0.40;0.40;;;;;;;14.07;67.81;100911.06;18359957;32;20105;-57
2022/10/25 19:10:53;;;;;;;0.30;0.30;;;;;;;14.09;68.00;100898.78;18367179;32;20163;-58
2022/10/25 19:21:02;;;;;;;0.20;0.20;;;;;;;13.83;68.04;100903.38;18354450;32;20391;-57
2022/10/25 19:31:06;;;;;;;0.30;0.30;;;;;;;13.72;67.69;100913.94;18303431;32;20111;-57
2022/10/25 19:41:14;;;;;;;0.30;0.30;;;;;;;13.76;66.84;100920.06;18300556;32;20113;-57
2022/10/25 19:51:19;;;;;;;0.40;0.40;;;;;;;13.51;67.38;100916.72;18299893;32;20169;-57
2022/10/25 20:01:26;;;;;;;0.43;0.43;;;;;;;13.41;67.04;100928.97;18303635;32;20097;-57
2022/10/25 20:11:36;;;;;;;0.73;0.37;;;;;;;13.30;66.93;100944.78;18297624;32;20097;-57
2022/10/25 20:21:41;;;;;;;0.50;0.50;;;;;;;13.24;66.45;100950.03;18300953;32;20093;-57
2022/10/25 20:31:44;;;;;;;0.90;0.73;;;;;;;12.92;66.82;100961.53;18287137;32;20090;-57
2022/10/25 20:41:49;;;;;;;0.30;0.30;;;;;;;12.89;66.76;100970.25;18301853;32;20408;-58
2022/10/25 20:51:52;;;;;;;0.45;0.45;;;;;;;12.80;66.67;100976.37;18301144;32;20115;-57
2022/10/25 21:01:57;;;;;;;0.70;0.57;;;;;;;12.52;67.16;100975.56;18302058;32;20093;-57
2022/10/25 21:12:00;;;;;;;0.50;0.50;;;;;;;12.50;66.97;100988.66;18268966;32;20109;-57
2022/10/25 21:22:05;;;;;;;0.40;0.40;;;;;;;11.76;68.80;100984.22;18237552;32;20343;-57
2022/10/25 21:32:16;;;;;;;0.50;0.50;;;;;;;12.05;68.57;100979.06;18234080;32;20108;-57
2022/10/25 21:42:21;;;;;;;0.50;0.50;;;;;;;12.14;68.24;100982.53;18318608;32;20176;-57
2022/10/25 21:52:24;;;;;;;0.40;0.40;;;;;;;12.18;67.62;100997.38;18320341;32;20374;-57
2022/10/25 22:02:29;;;;;;;0.62;0.62;;;;;;;11.92;68.22;100995.56;18319760;32;20102;-57
2022/10/25 22:12:32;;;;;;;0.30;0.30;;;;;;;11.82;68.36;101005.16;18317999;32;20120;-57
2022/10/25 22:22:36;;;;;;;1.02;1.02;;;;;;;11.84;67.77;101002.53;18317883;32;20116;-57
2022/10/25 22:32:39;;;;;;;0.55;0.55;;;;;;;11.49;67.86;101010.28;18316580;32;20112;-57
2022/10/25 22:42:44;;;;;;;0.50;0.50;;;;;;;11.56;67.48;101008.56;18315223;32;20675;-57
2022/10/25 22:52:48;;;;;;;0.30;0.30;;;;;;;11.48;67.29;101003.31;18305209;32;20119;-57
2022/10/25 23:02:53;;;;;;;0.60;0.60;;;;;;;11.29;67.76;101015.41;18304718;32;20111;-57
2022/10/25 23:12:56;;;;;;;0.40;0.40;;;;;;;11.05;67.88;101013.56;18304204;32;20160;-57
2022/10/25 23:23:01;;;;;;;0.75;0.75;;;;;;;11.27;67.48;101017.16;18298160;32;20116;-57
2022/10/25 23:33:04;;;;;;;0.90;0.70;;;;;;;11.01;67.96;101017.03;18261618;32;20101;-57
2022/10/25 23:43:09;;;;;;;0.95;0.88;;;;;;;11.05;67.43;101010.94;18240308;32;20398;-57
2022/10/25 23:53:12;;;;;;;0.52;0.52;;;;;;;10.89;67.87;101018.69;18239663;32;20090;-57
